Time;durP1;ratioP1;P1;durP2;ratioP2;P2;SDS_P1;SDS_P2;PMS_P1;PMS_P2;Temp;Humidity;BMP_temperature;BMP_pressure;BME280_temperature;BME280_humidity;BME280_pressure;Samples;Min_cycle;Max_cycle;Signal;HPM_P1;HPM_P2
2022/12/30 00:01:46;;;;;;;;;;;;;;;;;;5038922;28;19964;-54
2022/12/30 00:04:13;;;;;;;;;;;;;;;;;;5038521;28;20613;-54
2022/12/30 00:06:39;;;;;;;;;;;;;;;;;;5040104;28;20418;-55
2022/12/30 00:09:05;;;;;;;;;;;;;;;;;;5039433;28;19936;-54
2022/12/30 00:11:33;;;;;;;;;;;;;;;;;;5042861;28;20020;-55
2022/12/30 00:33:24;;;;;;;;;;;;;;;;;;5024514;28;19933;-55
2022/12/30 00:35:51;;;;;;;;;;;;;;;;;;5001927;28;20356;-54
2022/12/30 00:38:17;;;;;;;;;;;;;;;;;;4999351;28;20385;-56
2022/12/30 00:43:07;;;;;;;;;;;;;;;;;;5000317;28;19961;-55
2022/12/30 00:43:29;;;;;;;;;;;;;;;;;;5001078;28;20032;-56
2022/12/30 00:45:55;;;;;;;;;;;;;;;;;;5003681;28;19945;-56
2022/12/30 00:56:35;;;;;;;;;;;;;;;;;;5001507;28;19932;-52
2022/12/30 00:59:01;;;;;;;;;;;;;;;;;;5004522;28;19969;-54
2022/12/30 01:01:27;;;;;;;;;;;;;;;;;;5005628;28;20020;-54
2022/12/30 01:03:54;;;;;;;;;;;;;;;;;;5008588;28;20053;-55
2022/12/30 01:06:21;;;;;;;;;;;;;;;;;;5002751;28;20036;-53
2022/12/30 01:08:48;;;;;;;;;;;;;;;;;;4998518;28;20359;-55
2022/12/30 01:11:14;;;;;;;;;;;;;;;;;;5002051;28;19976;-54
2022/12/30 01:13:41;;;;;;;;;;;;;;;;;;5001104;28;20024;-55
2022/12/30 01:16:08;;;;;;;;;;;;;;;;;;5003624;28;20004;-54
2022/12/30 01:18:34;;;;;;;;;;;;;;;;;;5001250;28;19969;-55
2022/12/30 01:21:01;;;;;;;;;;;;;;;;;;5002280;28;19984;-54
2022/12/30 01:23:29;;;;;;;;;;;;;;;;;;5005127;28;19984;-54
2022/12/30 01:25:55;;;;;;;;;;;;;;;;;;5001683;28;20896;-55
2022/12/30 01:28:21;;;;;;;;;;;;;;;;;;5000789;28;20447;-56
2022/12/30 01:30:48;;;;;;;;;;;;;;;;;;5003590;28;20337;-54
2022/12/30 01:33:14;;;;;;;;;;;;;;;;;;5002937;28;20424;-54
2022/12/30 01:35:40;;;;;;;;;;;;;;;;;;5005070;28;20293;-56
2022/12/30 01:38:07;;;;;;;;;;;;;;;;;;5004477;28;19972;-56
2022/12/30 01:40:39;;;;;;;;;;;;;;;;;;5001644;28;19929;-56
2022/12/30 01:43:08;;;;;;;;;;;;;;;;;;5003435;28;20416;-55
2022/12/30 01:45:34;;;;;;;;;;;;;;;;;;4999065;28;20012;-55
2022/12/30 01:48:01;;;;;;;;;;;;;;;;;;5001324;28;19934;-56
2022/12/30 01:50:29;;;;;;;;;;;;;;;;;;4992182;28;19926;-53
2022/12/30 01:52:56;;;;;;;;;;;;;;;;;;4994304;28;20651;-54
2022/12/30 01:55:25;;;;;;;;;;;;;;;;;;5001990;28;20355;-54
2022/12/30 01:57:53;;;;;;;;;;;;;;;;;;5003293;28;19926;-53
2022/12/30 02:00:19;;;;;;;;;;;;;;;;;;4992498;28;19985;-56
2022/12/30 02:02:46;;;;;;;;;;;;;;;;;;4999200;28;19965;-56
2022/12/30 02:05:12;;;;;;;;;;;;;;;;;;4998069;28;19976;-54
2022/12/30 02:07:39;;;;;;;;;;;;;;;;;;5004089;28;20394;-54
2022/12/30 02:10:05;;;;;;;;;;;;;;;;;;5005337;28;20111;-56
2022/12/30 02:12:32;;;;;;;;;;;;;;;;;;5002893;28;20004;-56
2022/12/30 02:14:59;;;;;;;;;;;;;;;;;;5001194;28;20760;-55
2022/12/30 02:17:28;;;;;;;;;;;;;;;;;;5002917;28;19972;-56
2022/12/30 02:20:13;;;;;;;;;;;;;;;;;;4999134;28;20038;-55
2022/12/30 02:22:44;;;;;;;;;;;;;;;;;;5002147;28;20013;-52
2022/12/30 02:25:16;;;;;;;;;;;;;;;;;;5001388;28;20049;-57
2022/12/30 02:27:58;;;;;;;;;;;;;;;;;;5001264;28;20332;-53
2022/12/30 02:30:26;;;;;;;;;;;;;;;;;;5005021;28;20647;-53
2022/12/30 02:32:59;;;;;;;;;;;;;;;;;;4999319;28;20030;-54
2022/12/30 02:35:26;;;;;;;;;;;;;;;;;;5001842;28;19969;-54
2022/12/30 02:37:54;;;;;;;;;;;;;;;;;;5003674;28;19929;-56
2022/12/30 02:40:23;;;;;;;;;;;;;;;;;;4991251;28;19973;-54
2022/12/30 02:45:34;;;;;;;;;;;;;;;;;;5003760;28;19936;-54
2022/12/30 02:48:03;;;;;;;;;;;;;;;;;;5000390;28;20033;-56
2022/12/30 02:53:15;;;;;;;;;;;;;;;;;;4999729;28;20438;-54
2022/12/30 02:55:41;;;;;;;;;;;;;;;;;;5003238;28;20710;-53
2022/12/30 02:58:07;;;;;;;;;;;;;;;;;;4998827;28;20030;-54
2022/12/30 03:06:25;;;;;;;;;;;;;;;;;;5003071;28;19987;-55
2022/12/30 03:08:52;;;;;;;;;;;;;;;;;;5002751;28;20388;-53
2022/12/30 03:11:18;;;;;;;;;;;;;;;;;;5000930;28;19984;-56
2022/12/30 03:13:51;;;;;;;;;;;;;;;;;;5002926;28;19961;-54
2022/12/30 03:16:18;;;;;;;;;;;;;;;;;;4997688;28;20012;-55
2022/12/30 03:18:46;;;;;;;;;;;;;;;;;;4999435;28;20025;-53
2022/12/30 03:21:12;;;;;;;;;;;;;;;;;;4997977;28;19969;-55
2022/12/30 03:29:08;;;;;;;;;;;;;;;;;;4997592;28;19971;-55
2022/12/30 03:31:35;;;;;;;;;;;;;;;;;;5001833;28;20440;-55
2022/12/30 03:34:02;;;;;;;;;;;;;;;;;;5001562;28;20000;-54
2022/12/30 03:36:29;;;;;;;;;;;;;;;;;;4991319;28;20008;-55
2022/12/30 03:38:56;;;;;;;;;;;;;;;;;;4998265;28;20345;-55
2022/12/30 03:41:23;;;;;;;;;;;;;;;;;;4998877;28;20004;-54
2022/12/30 03:43:49;;;;;;;;;;;;;;;;;;5001302;28;20024;-55
2022/12/30 03:46:15;;;;;;;;;;;;;;;;;;5000931;28;20048;-51
2022/12/30 03:48:42;;;;;;;;;;;;;;;;;;4999912;28;20024;-54
2022/12/30 03:51:09;;;;;;;;;;;;;;;;;;4997902;28;20025;-54
2022/12/30 03:53:36;;;;;;;;;;;;;;;;;;5001672;28;20037;-55
2022/12/30 03:56:02;;;;;;;;;;;;;;;;;;4998601;28;19970;-53
2022/12/30 03:58:28;;;;;;;;;;;;;;;;;;5002359;28;20012;-55
2022/12/30 04:00:55;;;;;;;;;;;;;;;;;;4998405;28;20020;-55
2022/12/30 04:03:21;;;;;;;;;;;;;;;;;;4999504;28;20016;-54
2022/12/30 04:05:47;;;;;;;;;;;;;;;;;;4999371;28;20024;-53
2022/12/30 04:08:15;;;;;;;;;;;;;;;;;;5001083;28;20012;-55
2022/12/30 04:10:41;;;;;;;;;;;;;;;;;;4997748;28;20012;-55
2022/12/30 04:13:08;;;;;;;;;;;;;;;;;;4997470;28;20030;-55
2022/12/30 04:15:34;;;;;;;;;;;;;;;;;;5001532;28;20012;-53
2022/12/30 04:18:00;;;;;;;;;;;;;;;;;;5004161;28;19965;-56
2022/12/30 04:20:27;;;;;;;;;;;;;;;;;;4995549;28;19994;-53
2022/12/30 04:22:56;;;;;;;;;;;;;;;;;;4998759;28;19925;-56
2022/12/30 04:25:24;;;;;;;;;;;;;;;;;;5006815;28;19972;-53
2022/12/30 04:27:50;;;;;;;;;;;;;;;;;;5007514;28;20379;-56
2022/12/30 04:30:16;;;;;;;;;;;;;;;;;;5005055;28;20415;-52
2022/12/30 04:32:43;;;;;;;;;;;;;;;;;;5001235;28;20028;-54
2022/12/30 04:35:09;;;;;;;;;;;;;;;;;;5000805;28;19933;-55
2022/12/30 04:37:35;;;;;;;;;;;;;;;;;;5004702;28;20028;-55
2022/12/30 04:40:02;;;;;;;;;;;;;;;;;;5000808;28;19936;-56
2022/12/30 04:42:30;;;;;;;;;;;;;;;;;;5001109;28;20021;-53
2022/12/30 04:44:56;;;;;;;;;;;;;;;;;;5003418;28;20025;-54
2022/12/30 04:47:22;;;;;;;;;;;;;;;;;;5005218;28;20008;-53
2022/12/30 04:49:48;;;;;;;;;;;;;;;;;;4994945;28;20424;-54
2022/12/30 04:52:15;;;;;;;;;;;;;;;;;;5004736;28;20328;-53
2022/12/30 04:54:41;;;;;;;;;;;;;;;;;;5005570;28;20419;-56
2022/12/30 04:57:07;;;;;;;;;;;;;;;;;;4999043;28;20428;-53
2022/12/30 04:59:35;;;;;;;;;;;;;;;;;;5000563;28;20392;-54
2022/12/30 05:02:02;;;;;;;;;;;;;;;;;;5003274;28;20041;-55
2022/12/30 05:04:29;;;;;;;;;;;;;;;;;;5004085;28;20039;-53
2022/12/30 05:06:55;;;;;;;;;;;;;;;;;;5002211;28;19995;-53
2022/12/30 05:09:21;;;;;;;;;;;;;;;;;;4994709;28;20016;-53
2022/12/30 05:11:48;;;;;;;;;;;;;;;;;;5003376;28;20024;-52
2022/12/30 05:14:14;;;;;;;;;;;;;;;;;;5004353;28;20028;-55
2022/12/30 05:16:42;;;;;;;;;;;;;;;;;;5000814;28;20296;-55
2022/12/30 05:19:08;;;;;;;;;;;;;;;;;;5000824;28;20025;-54
2022/12/30 05:21:34;;;;;;;;;;;;;;;;;;5001572;28;20036;-54
2022/12/30 05:26:45;;;;;;;;;;;;;;;;;;5002872;28;20052;-56
2022/12/30 05:29:11;;;;;;;;;;;;;;;;;;5005459;28;20041;-55
2022/12/30 05:31:37;;;;;;;;;;;;;;;;;;5004305;28;19977;-53
2022/12/30 05:34:05;;;;;;;;;;;;;;;;;;5005474;28;19980;-54
2022/12/30 05:36:31;;;;;;;;;;;;;;;;;;4999304;28;19988;-54
2022/12/30 05:38:58;;;;;;;;;;;;;;;;;;4995045;28;20428;-55
2022/12/30 05:41:25;;;;;;;;;;;;;;;;;;4998564;28;20451;-54
2022/12/30 05:43:52;;;;;;;;;;;;;;;;;;5001973;28;20015;-54
2022/12/30 05:46:18;;;;;;;;;;;;;;;;;;5000639;28;20371;-55
2022/12/30 05:48:44;;;;;;;;;;;;;;;;;;5002779;28;19988;-55
2022/12/30 05:51:12;;;;;;;;;;;;;;;;;;5004977;28;20016;-55
2022/12/30 05:53:38;;;;;;;;;;;;;;;;;;4992612;28;20367;-56
2022/12/30 05:56:05;;;;;;;;;;;;;;;;;;5003746;28;20417;-55
2022/12/30 05:58:31;;;;;;;;;;;;;;;;;;5003576;28;19979;-56
2022/12/30 06:00:58;;;;;;;;;;;;;;;;;;5004524;28;20012;-55
2022/12/30 06:03:24;;;;;;;;;;;;;;;;;;5006488;28;20012;-54
2022/12/30 06:05:55;;;;;;;;;;;;;;;;;;5001103;28;20024;-56
2022/12/30 06:08:23;;;;;;;;;;;;;;;;;;4997178;28;20376;-55
2022/12/30 06:10:49;;;;;;;;;;;;;;;;;;5001390;28;20072;-55
2022/12/30 06:13:15;;;;;;;;;;;;;;;;;;4999089;28;19929;-54
2022/12/30 06:15:42;;;;;;;;;;;;;;;;;;5004652;28;19976;-54
2022/12/30 06:18:08;;;;;;;;;;;;;;;;;;5002450;28;20467;-54
2022/12/30 06:20:34;;;;;;;;;;;;;;;;;;5000042;28;20005;-56
2022/12/30 06:23:01;;;;;;;;;;;;;;;;;;5006702;28;20024;-57
2022/12/30 06:25:28;;;;;;;;;;;;;;;;;;4999543;28;20375;-55
2022/12/30 06:27:55;;;;;;;;;;;;;;;;;;4999193;28;19968;-54
2022/12/30 06:30:21;;;;;;;;;;;;;;;;;;5004458;28;20008;-56
2022/12/30 06:32:48;;;;;;;;;;;;;;;;;;5002708;28;20015;-55
2022/12/30 06:35:14;;;;;;;;;;;;;;;;;;5002500;28;19937;-54
2022/12/30 06:37:40;;;;;;;;;;;;;;;;;;5002712;28;20020;-55
2022/12/30 06:40:07;;;;;;;;;;;;;;;;;;5005023;28;19980;-55
2022/12/30 06:42:35;;;;;;;;;;;;;;;;;;5005044;28;20036;-54
2022/12/30 06:45:01;;;;;;;;;;;;;;;;;;4997116;28;20020;-56
2022/12/30 06:47:27;;;;;;;;;;;;;;;;;;4994877;28;19972;-56
2022/12/30 06:49:54;;;;;;;;;;;;;;;;;;4999055;28;19996;-55
2022/12/30 06:52:21;;;;;;;;;;;;;;;;;;4999702;28;19929;-55
2022/12/30 06:54:47;;;;;;;;;;;;;;;;;;5003246;28;20012;-53
2022/12/30 06:57:14;;;;;;;;;;;;;;;;;;4997223;28;20352;-53
2022/12/30 06:59:41;;;;;;;;;;;;;;;;;;4995393;28;20017;-54
2022/12/30 07:02:09;;;;;;;;;;;;;;;;;;5001819;28;20012;-55
2022/12/30 07:04:35;;;;;;;;;;;;;;;;;;5003979;28;20012;-54
2022/12/30 07:07:01;;;;;;;;;;;;;;;;;;4994080;28;20012;-55
2022/12/30 07:09:28;;;;;;;;;;;;;;;;;;4999563;28;19933;-55
2022/12/30 07:11:54;;;;;;;;;;;;;;;;;;4999862;28;20050;-55
2022/12/30 07:14:20;;;;;;;;;;;;;;;;;;5002991;28;20025;-57
2022/12/30 07:16:48;;;;;;;;;;;;;;;;;;5007279;28;20028;-55
2022/12/30 07:19:15;;;;;;;;;;;;;;;;;;4999777;28;20392;-55
2022/12/30 07:21:42;;;;;;;;;;;;;;;;;;5005334;28;20020;-54
2022/12/30 07:24:08;;;;;;;;;;;;;;;;;;4997738;28;19933;-54
2022/12/30 07:26:35;;;;;;;;;;;;;;;;;;5002080;28;19980;-52
2022/12/30 07:29:01;;;;;;;;;;;;;;;;;;5001278;28;19981;-54
2022/12/30 07:31:27;;;;;;;;;;;;;;;;;;4999082;28;20353;-55
2022/12/30 07:33:55;;;;;;;;;;;;;;;;;;5002322;28;20012;-54
2022/12/30 07:36:21;;;;;;;;;;;;;;;;;;5006760;28;19969;-54
2022/12/30 07:38:48;;;;;;;;;;;;;;;;;;5001035;28;20038;-58
2022/12/30 07:41:14;;;;;;;;;;;;;;;;;;5005600;28;20245;-55
2022/12/30 07:43:40;;;;;;;;;;;;;;;;;;4998814;28;20024;-52
2022/12/30 07:46:07;;;;;;;;;;;;;;;;;;4997733;28;19975;-54
2022/12/30 07:48:33;;;;;;;;;;;;;;;;;;4999306;28;20417;-54
2022/12/30 07:51:05;;;;;;;;;;;;;;;;;;4997482;28;19961;-55
2022/12/30 07:53:31;;;;;;;;;;;;;;;;;;5001971;28;19980;-55
2022/12/30 07:55:58;;;;;;;;;;;;;;;;;;5000333;28;20329;-54
2022/12/30 07:58:24;;;;;;;;;;;;;;;;;;5000379;28;20028;-53
2022/12/30 08:00:51;;;;;;;;;;;;;;;;;;4996354;28;20044;-54
2022/12/30 08:03:17;;;;;;;;;;;;;;;;;;4996716;28;20012;-53
2022/12/30 08:05:43;;;;;;;;;;;;;;;;;;4999658;28;20024;-55
2022/12/30 08:08:11;;;;;;;;;;;;;;;;;;5001356;28;19972;-55
2022/12/30 08:10:37;;;;;;;;;;;;;;;;;;4998828;28;20004;-54
2022/12/30 08:13:04;;;;;;;;;;;;;;;;;;5001151;28;20012;-55
2022/12/30 08:15:31;;;;;;;;;;;;;;;;;;5003315;28;20013;-56
2022/12/30 08:17:57;;;;;;;;;;;;;;;;;;5000902;28;19933;-55
2022/12/30 08:20:23;;;;;;;;;;;;;;;;;;4999165;28;19984;-56
2022/12/30 08:22:50;;;;;;;;;;;;;;;;;;5002257;28;20012;-55
2022/12/30 08:25:18;;;;;;;;;;;;;;;;;;5003169;28;20013;-52
2022/12/30 08:27:44;;;;;;;;;;;;;;;;;;5000804;28;20015;-55
2022/12/30 08:30:11;;;;;;;;;;;;;;;;;;4997833;28;20033;-54
2022/12/30 08:32:38;;;;;;;;;;;;;;;;;;4997880;28;19926;-55
2022/12/30 08:35:05;;;;;;;;;;;;;;;;;;5004232;28;20001;-53
2022/12/30 08:37:31;;;;;;;;;;;;;;;;;;5000793;28;19957;-53
2022/12/30 08:39:57;;;;;;;;;;;;;;;;;;5001147;28;19992;-53
2022/12/30 08:42:25;;;;;;;;;;;;;;;;;;5001135;28;20392;-54
2022/12/30 08:44:51;;;;;;;;;;;;;;;;;;5001823;28;19930;-53
2022/12/30 08:47:18;;;;;;;;;;;;;;;;;;5002017;28;20008;-53
2022/12/30 08:49:44;;;;;;;;;;;;;;;;;;5001739;28;20020;-54
2022/12/30 08:52:11;;;;;;;;;;;;;;;;;;5001155;28;20032;-55
2022/12/30 08:54:37;;;;;;;;;;;;;;;;;;4999145;28;19926;-54
2022/12/30 08:57:03;;;;;;;;;;;;;;;;;;4989649;28;20028;-53
2022/12/30 08:59:31;;;;;;;;;;;;;;;;;;4998035;28;19973;-53
2022/12/30 09:01:57;;;;;;;;;;;;;;;;;;5002427;28;19976;-52
2022/12/30 09:04:24;;;;;;;;;;;;;;;;;;5001388;28;20682;-54
2022/12/30 09:06:50;;;;;;;;;;;;;;;;;;4993142;28;20028;-55
2022/12/30 09:09:16;;;;;;;;;;;;;;;;;;5003854;28;20024;-55
2022/12/30 09:11:43;;;;;;;;;;;;;;;;;;4999562;28;20017;-56
2022/12/30 09:14:10;;;;;;;;;;;;;;;;;;5001870;28;20433;-56
2022/12/30 09:16:38;;;;;;;;;;;;;;;;;;5003932;28;20793;-54
2022/12/30 09:19:04;;;;;;;;;;;;;;;;;;5003414;28;19929;-53
2022/12/30 09:21:30;;;;;;;;;;;;;;;;;;5004249;28;20016;-55
2022/12/30 09:23:57;;;;;;;;;;;;;;;;;;5005798;28;19976;-55
2022/12/30 09:26:24;;;;;;;;;;;;;;;;;;5002410;28;20053;-54
2022/12/30 09:28:50;;;;;;;;;;;;;;;;;;5004889;28;20020;-53
2022/12/30 09:31:17;;;;;;;;;;;;;;;;;;5007488;28;19933;-55
2022/12/30 09:33:45;;;;;;;;;;;;;;;;;;5002932;28;20408;-55
2022/12/30 09:36:11;;;;;;;;;;;;;;;;;;5002749;28;20017;-55
2022/12/30 09:38:38;;;;;;;;;;;;;;;;;;5003261;28;19930;-54
2022/12/30 09:41:05;;;;;;;;;;;;;;;;;;5005169;28;20382;-53
2022/12/30 09:43:31;;;;;;;;;;;;;;;;;;5004200;28;20021;-55
2022/12/30 09:46:02;;;;;;;;;;;;;;;;;;5001018;28;20250;-55
2022/12/30 09:48:29;;;;;;;;;;;;;;;;;;5003524;28;20404;-54
2022/12/30 09:50:59;;;;;;;;;;;;;;;;;;5004610;28;20043;-55
2022/12/30 09:53:29;;;;;;;;;;;;;;;;;;5000527;28;19926;-53
2022/12/30 09:55:57;;;;;;;;;;;;;;;;;;5001560;28;20021;-56
2022/12/30 09:58:24;;;;;;;;;;;;;;;;;;4998503;28;19930;-54
2022/12/30 10:00:51;;;;;;;;;;;;;;;;;;5003772;28;20045;-55
2022/12/30 10:03:17;;;;;;;;;;;;;;;;;;5001026;28;20395;-56
2022/12/30 10:05:51;;;;;;;;;;;;;;;;;;5001820;28;20016;-55
2022/12/30 10:08:23;;;;;;;;;;;;;;;;;;4999655;28;20024;-56
2022/12/30 10:10:51;;;;;;;;;;;;;;;;;;5002993;28;20008;-55
2022/12/30 10:13:18;;;;;;;;;;;;;;;;;;4999057;28;20011;-56
2022/12/30 10:15:48;;;;;;;;;;;;;;;;;;5001997;28;20020;-56
2022/12/30 10:18:21;;;;;;;;;;;;;;;;;;4998716;28;20456;-56
2022/12/30 10:20:53;;;;;;;;;;;;;;;;;;5002724;28;20012;-56
2022/12/30 10:23:24;;;;;;;;;;;;;;;;;;5001208;28;19970;-55
2022/12/30 10:25:51;;;;;;;;;;;;;;;;;;5002679;28;19925;-55
2022/12/30 10:28:19;;;;;;;;;;;;;;;;;;4999258;28;20008;-55
2022/12/30 10:30:46;;;;;;;;;;;;;;;;;;5001097;28;20020;-54
2022/12/30 10:33:14;;;;;;;;;;;;;;;;;;5001709;28;19996;-56
2022/12/30 10:35:40;;;;;;;;;;;;;;;;;;4995982;28;19937;-54
2022/12/30 10:38:09;;;;;;;;;;;;;;;;;;4998709;28;20024;-55
2022/12/30 10:40:39;;;;;;;;;;;;;;;;;;5000143;28;19968;-55
2022/12/30 10:43:09;;;;;;;;;;;;;;;;;;4991716;28;19933;-56
2022/12/30 10:45:38;;;;;;;;;;;;;;;;;;5005235;28;19930;-55
2022/12/30 10:48:10;;;;;;;;;;;;;;;;;;5000554;28;20005;-56
2022/12/30 10:50:37;;;;;;;;;;;;;;;;;;4994591;28;19930;-56
2022/12/30 10:53:04;;;;;;;;;;;;;;;;;;5001099;28;20016;-55
2022/12/30 10:55:32;;;;;;;;;;;;;;;;;;5003131;28;20487;-54
2022/12/30 10:58:00;;;;;;;;;;;;;;;;;;4998163;28;20698;-55
2022/12/30 11:00:27;;;;;;;;;;;;;;;;;;5000601;28;20426;-55
2022/12/30 11:02:55;;;;;;;;;;;;;;;;;;5001204;28;20021;-55
2022/12/30 11:05:29;;;;;;;;;;;;;;;;;;5001148;28;19976;-55
2022/12/30 11:07:56;;;;;;;;;;;;;;;;;;5000845;28;20079;-55
2022/12/30 11:10:22;;;;;;;;;;;;;;;;;;5001277;28;20451;-56
2022/12/30 11:15:34;;;;;;;;;;;;;;;;;;5003136;28;19936;-55
2022/12/30 11:18:00;;;;;;;;;;;;;;;;;;4998001;28;20032;-54
2022/12/30 11:20:31;;;;;;;;;;;;;;;;;;5001528;28;20028;-56
2022/12/30 11:22:58;;;;;;;;;;;;;;;;;;5004723;28;19975;-55
2022/12/30 11:25:25;;;;;;;;;;;;;;;;;;5000383;28;20112;-55
2022/12/30 11:27:52;;;;;;;;;;;;;;;;;;5002857;28;19929;-55
2022/12/30 11:30:23;;;;;;;;;;;;;;;;;;4995521;28;20333;-56
2022/12/30 11:32:50;;;;;;;;;;;;;;;;;;5001431;28;20714;-57
2022/12/30 11:35:31;;;;;;;;;;;;;;;;;;4997065;28;20016;-53
2022/12/30 11:37:57;;;;;;;;;;;;;;;;;;5004183;28;19957;-56
2022/12/30 11:40:27;;;;;;;;;;;;;;;;;;5002490;28;20016;-56
2022/12/30 11:43:10;;;;;;;;;;;;;;;;;;4999763;28;20428;-55
2022/12/30 11:45:39;;;;;;;;;;;;;;;;;;5000293;28;20012;-55
2022/12/30 11:48:13;;;;;;;;;;;;;;;;;;5006622;28;19952;-58
2022/12/30 11:50:40;;;;;;;;;;;;;;;;;;4997945;28;20056;-57
2022/12/30 11:53:06;;;;;;;;;;;;;;;;;;4998887;28;19964;-59
2022/12/30 11:55:32;;;;;;;;;;;;;;;;;;4999882;28;20009;-59
2022/12/30 11:57:59;;;;;;;;;;;;;;;;;;5004397;28;20024;-60
2022/12/30 12:00:28;;;;;;;;;;;;;;;;;;4997552;28;19965;-60
2022/12/30 12:02:55;;;;;;;;;;;;;;;;;;5002967;28;20376;-61
2022/12/30 12:05:28;;;;;;;;;;;;;;;;;;4999394;28;20055;-59
2022/12/30 12:07:55;;;;;;;;;;;;;;;;;;5000432;28;19930;-57
2022/12/30 12:10:23;;;;;;;;;;;;;;;;;;4999463;28;19926;-59
2022/12/30 12:12:50;;;;;;;;;;;;;;;;;;4999201;28;19930;-59
2022/12/30 12:15:20;;;;;;;;;;;;;;;;;;4997990;28;19969;-59
2022/12/30 12:17:47;;;;;;;;;;;;;;;;;;5002908;28;20349;-53
2022/12/30 12:20:22;;;;;;;;;;;;;;;;;;4997375;28;19968;-54
2022/12/30 12:22:53;;;;;;;;;;;;;;;;;;5000098;28;19926;-54
2022/12/30 12:25:21;;;;;;;;;;;;;;;;;;4998965;28;19976;-53
2022/12/30 12:27:48;;;;;;;;;;;;;;;;;;5004722;28;20012;-54
2022/12/30 12:30:15;;;;;;;;;;;;;;;;;;5002025;28;20016;-53
2022/12/30 12:32:44;;;;;;;;;;;;;;;;;;5000407;28;20504;-54
2022/12/30 12:35:14;;;;;;;;;;;;;;;;;;4998186;28;19929;-56
2022/12/30 12:37:45;;;;;;;;;;;;;;;;;;4999428;28;19968;-55
2022/12/30 12:40:20;;;;;;;;;;;;;;;;;;5003140;28;19935;-54
2022/12/30 12:42:49;;;;;;;;;;;;;;;;;;5004322;28;20025;-54
2022/12/30 12:45:34;;;;;;;;;;;;;;;;;;5004538;28;19940;-50
2022/12/30 12:48:05;;;;;;;;;;;;;;;;;;5002474;28;19926;-53
2022/12/30 12:50:34;;;;;;;;;;;;;;;;;;5004410;28;20012;-54
2022/12/30 12:53:05;;;;;;;;;;;;;;;;;;5003080;28;20345;-55
2022/12/30 12:55:35;;;;;;;;;;;;;;;;;;5001833;28;20016;-54
2022/12/30 12:58:03;;;;;;;;;;;;;;;;;;4997598;28;20016;-52
2022/12/30 13:00:32;;;;;;;;;;;;;;;;;;5004619;28;20025;-52
2022/12/30 13:03:18;;;;;;;;;;;;;;;;;;5001172;28;19925;-55
2022/12/30 13:05:47;;;;;;;;;;;;;;;;;;5000682;28;19926;-55
2022/12/30 13:08:16;;;;;;;;;;;;;;;;;;5003621;28;19936;-56
2022/12/30 13:10:44;;;;;;;;;;;;;;;;;;5004866;28;20020;-56
2022/12/30 13:13:12;;;;;;;;;;;;;;;;;;5005201;28;20020;-58
2022/12/30 13:15:40;;;;;;;;;;;;;;;;;;5003573;28;20384;-57
2022/12/30 13:18:08;;;;;;;;;;;;;;;;;;4999148;28;20356;-64
2022/12/30 13:20:36;;;;;;;;;;;;;;;;;;5002681;28;19925;-58
2022/12/30 13:23:03;;;;;;;;;;;;;;;;;;4995290;28;20546;-58
2022/12/30 13:25:30;;;;;;;;;;;;;;;;;;5002356;28;19936;-58
2022/12/30 13:27:57;;;;;;;;;;;;;;;;;;5002099;28;20029;-58
2022/12/30 13:30:25;;;;;;;;;;;;;;;;;;5001538;28;19980;-58
2022/12/30 13:32:52;;;;;;;;;;;;;;;;;;5003118;28;20016;-58
2022/12/30 13:35:23;;;;;;;;;;;;;;;;;;4998001;28;20392;-58
2022/12/30 13:37:51;;;;;;;;;;;;;;;;;;5001843;28;19961;-58
2022/12/30 13:40:18;;;;;;;;;;;;;;;;;;5000955;28;20024;-59
2022/12/30 13:42:48;;;;;;;;;;;;;;;;;;4998188;28;20428;-59
2022/12/30 13:45:21;;;;;;;;;;;;;;;;;;4998988;28;20029;-59
2022/12/30 13:47:47;;;;;;;;;;;;;;;;;;4993281;28;19969;-59
2022/12/30 13:50:15;;;;;;;;;;;;;;;;;;4999626;28;20371;-58
2022/12/30 13:52:44;;;;;;;;;;;;;;;;;;5000594;28;20356;-59
2022/12/30 13:55:16;;;;;;;;;;;;;;;;;;5001056;28;19929;-58
2022/12/30 13:57:42;;;;;;;;;;;;;;;;;;5000076;28;19965;-58
2022/12/30 14:00:11;;;;;;;;;;;;;;;;;;5002194;28;20415;-58
2022/12/30 14:02:49;;;;;;;;;;;;;;;;;;4999435;28;19961;-59
2022/12/30 14:05:30;;;;;;;;;;;;;;;;;;5000089;28;20012;-59
2022/12/30 14:07:56;;;;;;;;;;;;;;;;;;5004061;28;20012;-58
2022/12/30 14:10:30;;;;;;;;;;;;;;;;;;5001260;28;19925;-58
2022/12/30 14:13:06;;;;;;;;;;;;;;;;;;5001007;28;19969;-58
2022/12/30 14:15:53;;;;;;;;;;;;;;;;;;4999671;28;20032;-58
2022/12/30 14:18:21;;;;;;;;;;;;;;;;;;5002670;28;20373;-59
2022/12/30 14:20:53;;;;;;;;;;;;;;;;;;5002960;28;19961;-58
2022/12/30 14:23:34;;;;;;;;;;;;;;;;;;5001935;28;20019;-58
2022/12/30 14:26:11;;;;;;;;;;;;;;;;;;5000814;28;20436;-58
2022/12/30 14:28:38;;;;;;;;;;;;;;;;;;4994398;28;19984;-58
2022/12/30 14:31:04;;;;;;;;;;;;;;;;;;5002675;28;19972;-58
2022/12/30 14:33:34;;;;;;;;;;;;;;;;;;4992505;28;19972;-58
2022/12/30 14:36:02;;;;;;;;;;;;;;;;;;4999602;28;20024;-58
2022/12/30 14:38:32;;;;;;;;;;;;;;;;;;5001568;28;20004;-59
2022/12/30 14:41:03;;;;;;;;;;;;;;;;;;4995643;28;20013;-58
2022/12/30 14:43:30;;;;;;;;;;;;;;;;;;4999711;28;19969;-58
2022/12/30 14:46:27;;;;;;;;;;;;;;;;;;5002167;28;19975;-59
2022/12/30 14:48:59;;;;;;;;;;;;;;;;;;5002103;28;20380;-58
2022/12/30 14:51:25;;;;;;;;;;;;;;;;;;5001604;28;19969;-59
2022/12/30 14:53:51;;;;;;;;;;;;;;;;;;4998089;28;20012;-59
2022/12/30 14:56:18;;;;;;;;;;;;;;;;;;5004165;28;19964;-59
2022/12/30 14:58:44;;;;;;;;;;;;;;;;;;4998815;28;19961;-58
2022/12/30 15:01:11;;;;;;;;;;;;;;;;;;5001345;28;20004;-58
2022/12/30 15:03:38;;;;;;;;;;;;;;;;;;4999150;28;20016;-59
2022/12/30 15:06:06;;;;;;;;;;;;;;;;;;4997868;28;19961;-58
2022/12/30 15:08:34;;;;;;;;;;;;;;;;;;4998143;28;20005;-59
2022/12/30 15:11:02;;;;;;;;;;;;;;;;;;5000004;28;20039;-58
2022/12/30 15:13:29;;;;;;;;;;;;;;;;;;4996769;28;19977;-59
2022/12/30 15:15:56;;;;;;;;;;;;;;;;;;5002650;28;20025;-58
2022/12/30 15:18:27;;;;;;;;;;;;;;;;;;5000720;28;20009;-58
2022/12/30 15:20:54;;;;;;;;;;;;;;;;;;4999098;28;19984;-59
2022/12/30 15:23:22;;;;;;;;;;;;;;;;;;5003207;28;20060;-58
2022/12/30 15:25:54;;;;;;;;;;;;;;;;;;4996415;28;20039;-59
2022/12/30 15:28:20;;;;;;;;;;;;;;;;;;4996859;28;20020;-59
2022/12/30 15:30:48;;;;;;;;;;;;;;;;;;5000095;28;20024;-58
2022/12/30 15:33:15;;;;;;;;;;;;;;;;;;4998424;28;20040;-59
2022/12/30 15:35:41;;;;;;;;;;;;;;;;;;4999283;28;20024;-59
2022/12/30 15:38:10;;;;;;;;;;;;;;;;;;5000531;28;19930;-59
2022/12/30 15:40:38;;;;;;;;;;;;;;;;;;5001528;28;20653;-58
2022/12/30 15:43:08;;;;;;;;;;;;;;;;;;4999349;28;19965;-58
2022/12/30 15:45:35;;;;;;;;;;;;;;;;;;5002777;28;20033;-58
2022/12/30 15:48:02;;;;;;;;;;;;;;;;;;4998837;28;20015;-58
2022/12/30 15:50:29;;;;;;;;;;;;;;;;;;4990933;28;19925;-58
2022/12/30 15:52:56;;;;;;;;;;;;;;;;;;4997689;28;19957;-58
2022/12/30 15:55:22;;;;;;;;;;;;;;;;;;5002670;28;20530;-58
2022/12/30 15:57:50;;;;;;;;;;;;;;;;;;4998983;28;20016;-58
2022/12/30 16:00:18;;;;;;;;;;;;;;;;;;4998848;28;20780;-58
2022/12/30 16:02:45;;;;;;;;;;;;;;;;;;5000423;28;20016;-58
2022/12/30 16:05:18;;;;;;;;;;;;;;;;;;4997391;28;19984;-58
2022/12/30 16:07:44;;;;;;;;;;;;;;;;;;5007323;28;20400;-58
2022/12/30 16:10:22;;;;;;;;;;;;;;;;;;4997859;28;20012;-58
2022/12/30 16:12:50;;;;;;;;;;;;;;;;;;4996550;28;20016;-58
2022/12/30 16:15:17;;;;;;;;;;;;;;;;;;5002818;28;19980;-58
2022/12/30 16:17:57;;;;;;;;;;;;;;;;;;5004551;28;20560;-58
2022/12/30 16:20:25;;;;;;;;;;;;;;;;;;4997225;28;19926;-58
2022/12/30 16:22:51;;;;;;;;;;;;;;;;;;5000368;28;20020;-58
2022/12/30 16:25:20;;;;;;;;;;;;;;;;;;5004327;28;19968;-59
2022/12/30 16:27:47;;;;;;;;;;;;;;;;;;5003976;28;20384;-58
2022/12/30 16:30:24;;;;;;;;;;;;;;;;;;5001472;28;19972;-58
2022/12/30 16:32:51;;;;;;;;;;;;;;;;;;5001389;28;20474;-58
2022/12/30 16:35:17;;;;;;;;;;;;;;;;;;5008430;28;20396;-58
2022/12/30 16:37:43;;;;;;;;;;;;;;;;;;5007432;28;19984;-59
2022/12/30 16:40:12;;;;;;;;;;;;;;;;;;5002704;28;20010;-58
2022/12/30 16:42:39;;;;;;;;;;;;;;;;;;5003330;28;20354;-59
2022/12/30 16:45:11;;;;;;;;;;;;;;;;;;5006950;28;20416;-59
2022/12/30 16:47:39;;;;;;;;;;;;;;;;;;5004813;28;20402;-59
2022/12/30 16:50:06;;;;;;;;;;;;;;;;;;4994460;28;20297;-58
2022/12/30 16:52:32;;;;;;;;;;;;;;;;;;4999461;28;19972;-58
2022/12/30 16:54:58;;;;;;;;;;;;;;;;;;5003675;28;19977;-58
2022/12/30 16:57:25;;;;;;;;;;;;;;;;;;5003251;28;20027;-58
2022/12/30 16:59:51;;;;;;;;;;;;;;;;;;4999908;28;20016;-58
2022/12/30 17:02:18;;;;;;;;;;;;;;;;;;5003703;28;19978;-59
2022/12/30 17:04:46;;;;;;;;;;;;;;;;;;5003353;28;20019;-58
2022/12/30 17:07:13;;;;;;;;;;;;;;;;;;5002006;28;19929;-58
2022/12/30 17:12:23;;;;;;;;;;;;;;;;;;5004042;28;19953;-58
2022/12/30 17:14:50;;;;;;;;;;;;;;;;;;5002926;28;20626;-58
2022/12/30 17:17:16;;;;;;;;;;;;;;;;;;5003555;28;20352;-58
2022/12/30 17:19:45;;;;;;;;;;;;;;;;;;5000439;28;19926;-58
2022/12/30 17:22:13;;;;;;;;;;;;;;;;;;5003197;28;19933;-58
2022/12/30 17:24:39;;;;;;;;;;;;;;;;;;5001994;28;19926;-58
2022/12/30 17:27:05;;;;;;;;;;;;;;;;;;5000248;28;20027;-58
2022/12/30 17:29:32;;;;;;;;;;;;;;;;;;5003020;28;20023;-58
2022/12/30 17:31:58;;;;;;;;;;;;;;;;;;5002671;28;20377;-58
2022/12/30 17:34:24;;;;;;;;;;;;;;;;;;5004358;28;19964;-58
2022/12/30 17:36:51;;;;;;;;;;;;;;;;;;4999335;28;20017;-58
2022/12/30 17:39:18;;;;;;;;;;;;;;;;;;5003624;28;19929;-64
2022/12/30 17:41:47;;;;;;;;;;;;;;;;;;5001353;28;20024;-61
2022/12/30 17:44:13;;;;;;;;;;;;;;;;;;5001749;28;19980;-62